Time;durP1;ratioP1;P1;durP2;ratioP2;P2;SDS_P1;SDS_P2;PMS_P1;PMS_P2;Temp;Humidity;BMP_temperature;BMP_pressure;BME280_temperature;BME280_humidity;BME280_pressure;Samples;Min_cycle;Max_cycle;Signal;HPM_P1;HPM_P2
2021/12/20 00:02:27;;;;;;;25.30;11.37;;;6.70;85.10;;;;;;5110597;27;20190;-74
2021/12/20 00:04:55;;;;;;;24.73;11.30;;;6.70;85.10;;;;;;5108816;27;20211;-75
2021/12/20 00:07:24;;;;;;;20.93;11.97;;;6.80;85.20;;;;;;5105877;27;20200;-74
2021/12/20 00:09:52;;;;;;;24.20;11.33;;;6.70;85.10;;;;;;5122018;27;20189;-75
2021/12/20 00:12:20;;;;;;;27.10;11.73;;;6.80;85.10;;;;;;5119848;27;20193;-75
2021/12/20 00:14:50;;;;;;;22.37;10.83;;;6.80;85.10;;;;;;5116352;27;20202;-75
2021/12/20 00:17:18;;;;;;;23.20;11.23;;;6.80;85.10;;;;;;5112570;27;20194;-74
2021/12/20 00:19:47;;;;;;;19.40;10.83;;;6.80;85.10;;;;;;5107889;27;20253;-75
2021/12/20 00:22:15;;;;;;;21.87;11.40;;;6.80;85.00;;;;;;5113790;27;20191;-74
2021/12/20 00:24:43;;;;;;;19.03;10.17;;;6.80;85.10;;;;;;5110838;27;20324;-75
2021/12/20 00:27:14;;;;;;;22.20;10.90;;;6.80;85.10;;;;;;5112277;27;20193;-75
2021/12/20 00:29:42;;;;;;;21.77;9.37;;;6.80;85.00;;;;;;5112906;27;20192;-74
2021/12/20 00:32:12;;;;;;;19.77;10.20;;;6.80;85.00;;;;;;5118678;27;20199;-74
2021/12/20 00:34:41;;;;;;;18.97;10.20;;;6.80;84.90;;;;;;5099245;27;20652;-75
2021/12/20 00:42:38;;;;;;;20.03;11.00;;;6.80;85.00;;;;;;5102316;27;20361;-74
2021/12/20 00:45:08;;;;;;;21.57;11.00;;;6.80;85.10;;;;;;5106506;27;20223;-75
2021/12/20 00:47:38;;;;;;;17.90;9.80;;;6.80;85.10;;;;;;5104179;27;20197;-74
2021/12/20 00:50:09;;;;;;;20.10;9.80;;;6.80;85.00;;;;;;5107926;27;20193;-74
2021/12/20 00:52:37;;;;;;;17.17;9.70;;;6.80;85.10;;;;;;5112911;27;20204;-73
2021/12/20 00:55:07;;;;;;;18.80;10.50;;;6.80;85.10;;;;;;5103788;27;20207;-74
2021/12/20 00:57:35;;;;;;;21.50;9.97;;;6.80;85.20;;;;;;5102642;27;20637;-74
2021/12/20 01:00:06;;;;;;;19.47;10.50;;;6.80;85.20;;;;;;5108670;27;20236;-74
2021/12/20 01:02:34;;;;;;;18.37;9.63;;;6.80;85.10;;;;;;5107402;27;20509;-75
2021/12/20 01:05:06;;;;;;;20.23;10.77;;;6.80;85.20;;;;;;5112267;27;20188;-74
2021/12/20 01:07:34;;;;;;;19.27;9.37;;;6.80;85.20;;;;;;5104676;27;20635;-74
2021/12/20 01:10:06;;;;;;;21.17;10.70;;;6.80;85.10;;;;;;5106511;27;20183;-73
2021/12/20 01:12:42;;;;;;;19.80;9.60;;;6.90;85.00;;;;;;5112894;27;20826;-74
2021/12/20 01:15:12;;;;;;;19.37;9.97;;;6.80;84.80;;;;;;5114689;27;20818;-74
2021/12/20 01:17:40;;;;;;;17.17;10.10;;;6.80;84.80;;;;;;5117116;27;20924;-75
2021/12/20 01:20:11;;;;;;;20.37;9.70;;;6.80;84.80;;;;;;5095726;27;20247;-73
2021/12/20 01:22:42;;;;;;;16.93;10.23;;;6.90;84.90;;;;;;5113875;27;20195;-74
2021/12/20 01:25:10;;;;;;;17.17;9.47;;;6.90;84.90;;;;;;5110451;27;20198;-74
2021/12/20 01:27:39;;;;;;;20.50;9.90;;;6.90;84.80;;;;;;5107190;27;20199;-74
2021/12/20 01:30:10;;;;;;;20.87;10.13;;;6.90;84.80;;;;;;5106290;27;20208;-74
2021/12/20 01:32:39;;;;;;;18.83;9.83;;;6.90;84.80;;;;;;5106403;27;20219;-74
2021/12/20 01:35:08;;;;;;;21.87;10.43;;;6.90;84.80;;;;;;5103464;27;20255;-74
2021/12/20 01:37:38;;;;;;;20.57;10.03;;;6.90;84.80;;;;;;5114628;27;20202;-76
2021/12/20 01:40:09;;;;;;;21.90;10.00;;;6.80;84.80;;;;;;5115261;27;20224;-76
2021/12/20 01:42:37;;;;;;;21.07;9.93;;;6.80;84.80;;;;;;5107110;27;20741;-75
2021/12/20 01:45:11;;;;;;;19.00;10.00;;;6.90;85.00;;;;;;5119416;27;20740;-76
2021/12/20 01:47:44;;;;;;;19.43;9.80;;;6.80;85.00;;;;;;5099862;27;20192;-76
2021/12/20 01:50:19;;;;;;;20.63;10.50;;;6.80;85.00;;;;;;5107542;27;20183;-75
2021/12/20 01:52:49;;;;;;;19.00;9.83;;;6.80;85.00;;;;;;5105091;27;20550;-76
2021/12/20 01:55:21;;;;;;;19.70;10.17;;;6.90;85.10;;;;;;5113962;27;20691;-76
2021/12/20 01:57:50;;;;;;;17.10;9.87;;;6.90;85.10;;;;;;5107898;27;20204;-75
2021/12/20 02:00:23;;;;;;;20.97;10.73;;;7.00;85.00;;;;;;5107130;28;20230;-76
2021/12/20 02:02:57;;;;;;;20.20;10.93;;;7.00;84.80;;;;;;5103205;27;20733;-76
2021/12/20 02:05:39;;;;;;;23.48;12.48;;;7.00;84.60;;;;;;5094702;28;21036;-76
2021/12/20 02:08:18;;;;;;;22.10;10.83;;;7.00;84.70;;;;;;5102965;28;20202;-76
2021/12/20 02:10:49;;;;;;;18.67;10.23;;;6.90;84.50;;;;;;5109151;28;21129;-75
2021/12/20 02:13:18;;;;;;;20.97;10.27;;;6.90;84.40;;;;;;5104748;28;20191;-76
2021/12/20 02:15:47;;;;;;;20.97;10.27;;;6.90;84.40;;;;;;5116314;27;20206;-76
2021/12/20 02:18:15;;;;;;;22.30;11.30;;;6.90;84.50;;;;;;5110122;28;20245;-75
2021/12/20 02:20:45;;;;;;;21.30;11.55;;;6.90;84.40;;;;;;5101799;28;20441;-75
2021/12/20 02:23:13;;;;;;;20.47;10.30;;;6.90;84.60;;;;;;5109083;28;20196;-76
2021/12/20 02:25:42;;;;;;;21.17;9.60;;;7.00;84.70;;;;;;5119974;27;20198;-76
2021/12/20 02:28:13;;;;;;;20.13;10.07;;;7.00;84.50;;;;;;5108730;28;20237;-75
2021/12/20 02:30:53;;;;;;;19.70;10.50;;;7.10;84.40;;;;;;5104769;28;20194;-76
2021/12/20 02:38:56;;;;;;;22.37;10.80;;;7.20;84.00;;;;;;5092182;27;20674;-76
2021/12/20 02:41:30;;;;;;;34.67;15.83;;;7.20;83.90;;;;;;5111755;27;20226;-75
2021/12/20 02:44:04;;;;;;;20.20;11.27;;;7.30;83.90;;;;;;5111905;27;20902;-76
2021/12/20 02:46:47;;;;;;;26.23;12.90;;;7.40;83.40;;;;;;5109348;27;20190;-75
2021/12/20 02:49:18;;;;;;;29.70;12.40;;;7.40;83.10;;;;;;5117550;27;20566;-75
2021/12/20 02:51:50;;;;;;;25.47;12.07;;;7.30;83.00;;;;;;5108695;27;20195;-77
2021/12/20 02:54:20;;;;;;;24.63;12.80;;;7.30;82.90;;;;;;5111561;27;20195;-76
2021/12/20 02:56:49;;;;;;;23.40;12.30;;;7.30;83.00;;;;;;5112144;27;20221;-76
2021/12/20 02:59:18;;;;;;;23.97;12.07;;;7.30;82.70;;;;;;5121100;27;20206;-75
2021/12/20 03:01:51;;;;;;;24.33;12.87;;;7.30;82.60;;;;;;5117814;27;20743;-76
2021/12/20 03:04:20;;;;;;;27.80;13.63;;;7.30;82.50;;;;;;5111386;27;20198;-76
2021/12/20 03:06:53;;;;;;;28.00;12.60;;;7.30;82.50;;;;;;5108179;27;20198;-76
2021/12/20 03:09:26;;;;;;;27.17;14.03;;;7.30;82.40;;;;;;5111238;27;20651;-76
2021/12/20 03:11:58;;;;;;;31.47;14.07;;;7.20;82.20;;;;;;5115705;27;20179;-76
2021/12/20 03:14:31;;;;;;;27.37;13.67;;;7.20;82.40;;;;;;5105649;27;20191;-76
2021/12/20 03:17:00;;;;;;;25.20;13.10;;;7.20;82.50;;;;;;5105648;27;20562;-76
2021/12/20 03:19:30;;;;;;;28.73;13.33;;;7.20;82.70;;;;;;5107127;27;20201;-75
2021/12/20 03:22:00;;;;;;;28.77;14.37;;;7.20;82.80;;;;;;5117487;27;20224;-76
2021/12/20 03:24:28;;;;;;;28.10;14.20;;;7.20;82.90;;;;;;5119892;27;20669;-76
2021/12/20 03:26:57;;;;;;;27.90;14.07;;;7.20;82.70;;;;;;5109452;27;20198;-75
2021/12/20 03:29:25;;;;;;;28.93;14.70;;;7.20;82.70;;;;;;5111028;27;20650;-76
2021/12/20 03:31:54;;;;;;;28.57;14.10;;;7.20;82.50;;;;;;5107228;27;20203;-75
2021/12/20 03:34:23;;;;;;;26.87;14.33;;;7.20;82.60;;;;;;5104010;28;20863;-76
2021/12/20 03:36:52;;;;;;;32.10;13.33;;;7.20;82.80;;;;;;5110971;27;20734;-76
2021/12/20 03:39:21;;;;;;;26.33;14.00;;;7.20;82.70;;;;;;5102314;27;20209;-75
2021/12/20 03:41:50;;;;;;;25.57;14.20;;;7.20;82.60;;;;;;5123101;27;20236;-75
2021/12/20 03:44:18;;;;;;;30.57;14.70;;;7.20;82.50;;;;;;5127628;27;20223;-76
2021/12/20 03:46:47;;;;;;;29.17;14.73;;;7.20;82.50;;;;;;5112925;27;20480;-76
2021/12/20 03:49:15;;;;;;;28.77;15.43;;;7.20;82.40;;;;;;5103233;27;20198;-76
2021/12/20 03:51:43;;;;;;;29.10;15.70;;;7.20;82.50;;;;;;5118695;27;20203;-77
2021/12/20 03:54:12;;;;;;;28.23;15.23;;;7.20;82.50;;;;;;5092967;27;20201;-76
2021/12/20 03:56:41;;;;;;;27.17;14.20;;;7.10;82.50;;;;;;5113443;27;20191;-76
2021/12/20 03:59:10;;;;;;;30.23;14.43;;;7.10;82.50;;;;;;5104810;27;20195;-76
2021/12/20 04:01:38;;;;;;;28.03;14.13;;;7.10;82.60;;;;;;5117662;27;20702;-75
2021/12/20 04:04:07;;;;;;;26.87;14.60;;;7.10;82.60;;;;;;5106605;27;20592;-76
2021/12/20 04:06:36;;;;;;;30.67;15.37;;;7.10;82.50;;;;;;5114601;27;20199;-76
2021/12/20 04:09:05;;;;;;;26.73;14.93;;;7.10;82.50;;;;;;5110893;27;20201;-75
2021/12/20 04:11:33;;;;;;;35.47;16.50;;;7.00;82.50;;;;;;5105515;27;20191;-76
2021/12/20 04:14:04;;;;;;;29.57;14.37;;;7.00;82.50;;;;;;5103967;27;20195;-76
2021/12/20 04:16:32;;;;;;;27.13;14.70;;;6.90;82.70;;;;;;5095122;27;20659;-75
2021/12/20 04:19:00;;;;;;;27.23;14.93;;;6.80;82.80;;;;;;5105477;27;20731;-76
2021/12/20 04:21:30;;;;;;;31.73;15.73;;;6.80;83.00;;;;;;5107425;27;20242;-75
2021/12/20 04:23:58;;;;;;;31.53;15.40;;;6.80;83.20;;;;;;5118144;27;20190;-75
2021/12/20 04:26:27;;;;;;;30.73;15.70;;;6.80;83.20;;;;;;5116841;27;20197;-76
2021/12/20 04:28:55;;;;;;;32.23;16.03;;;6.80;83.30;;;;;;5123280;27;20200;-76
2021/12/20 04:31:25;;;;;;;32.50;15.90;;;6.80;83.30;;;;;;5107869;27;20229;-76
2021/12/20 04:33:53;;;;;;;30.53;15.47;;;6.80;83.40;;;;;;5115148;27;20666;-76
2021/12/20 04:36:22;;;;;;;30.83;16.50;;;6.80;83.50;;;;;;5108289;27;20189;-76
2021/12/20 04:38:50;;;;;;;28.83;14.47;;;6.80;83.50;;;;;;5117881;27;20200;-76
2021/12/20 04:41:18;;;;;;;29.50;14.30;;;6.80;83.50;;;;;;5106711;27;20242;-76
2021/12/20 04:43:47;;;;;;;27.93;15.00;;;6.80;83.50;;;;;;5105983;27;20240;-76
2021/12/20 04:46:15;;;;;;;31.30;16.00;;;6.90;83.60;;;;;;5106619;27;20630;-76
2021/12/20 04:48:45;;;;;;;27.83;14.57;;;6.90;83.60;;;;;;5110491;27;20195;-75
2021/12/20 04:51:13;;;;;;;31.80;15.60;;;6.80;83.40;;;;;;5115527;27;20194;-75
2021/12/20 04:53:41;;;;;;;30.80;15.60;;;6.80;83.30;;;;;;5103834;27;20222;-75
2021/12/20 04:56:10;;;;;;;25.47;14.40;;;6.80;83.50;;;;;;5105840;27;20361;-76
2021/12/20 04:58:38;;;;;;;29.67;14.37;;;6.80;83.50;;;;;;5115158;27;20208;-75
2021/12/20 05:01:07;;;;;;;30.93;15.50;;;6.70;83.60;;;;;;5114337;27;20214;-76
2021/12/20 05:03:35;;;;;;;29.47;14.97;;;6.70;83.80;;;;;;5118164;27;20199;-76
2021/12/20 05:06:05;;;;;;;30.37;14.63;;;6.70;83.70;;;;;;5103728;27;20704;-76
2021/12/20 05:08:36;;;;;;;31.27;16.03;;;6.60;83.80;;;;;;5110178;27;20189;-76
2021/12/20 05:11:05;;;;;;;27.13;14.63;;;6.60;83.90;;;;;;5115736;27;20204;-76
2021/12/20 05:13:33;;;;;;;30.03;14.83;;;6.60;83.90;;;;;;5117681;27;20714;-76
2021/12/20 05:16:01;;;;;;;25.77;14.33;;;6.60;83.90;;;;;;5112763;27;20828;-76
2021/12/20 05:18:30;;;;;;;29.20;15.53;;;6.60;83.90;;;;;;5120964;27;20198;-75
2021/12/20 05:20:58;;;;;;;28.23;15.03;;;6.60;83.90;;;;;;5113713;27;20202;-76
2021/12/20 05:23:28;;;;;;;28.93;14.67;;;6.60;83.90;;;;;;5104831;27;20190;-75
2021/12/20 05:25:56;;;;;;;29.17;15.33;;;6.60;83.90;;;;;;5111417;27;20201;-76
2021/12/20 05:28:25;;;;;;;31.83;14.77;;;6.60;83.80;;;;;;5105812;28;20189;-75
2021/12/20 05:30:53;;;;;;;28.43;15.43;;;6.60;83.80;;;;;;5106675;27;20188;-75
2021/12/20 05:33:22;;;;;;;30.07;15.67;;;6.60;83.70;;;;;;5105998;27;20239;-75
2021/12/20 05:35:51;;;;;;;26.97;15.23;;;6.60;83.70;;;;;;5109669;27;20188;-74
2021/12/20 05:38:32;;;;;;;31.37;16.70;;;6.60;83.70;;;;;;5104092;27;20176;-75
2021/12/20 05:41:00;;;;;;;26.63;13.53;;;6.60;83.70;;;;;;5110844;27;20193;-75
2021/12/20 05:43:28;;;;;;;28.70;14.80;;;6.50;83.60;;;;;;5105270;28;20197;-75
2021/12/20 05:45:57;;;;;;;26.13;15.13;;;6.50;83.60;;;;;;5113409;27;20196;-76
2021/12/20 05:48:25;;;;;;;26.30;13.80;;;6.50;83.80;;;;;;5113089;27;20197;-75
2021/12/20 05:50:54;;;;;;;25.07;14.07;;;6.50;83.80;;;;;;5106513;27;22394;-75
2021/12/20 05:53:22;;;;;;;21.23;13.00;;;6.50;83.80;;;;;;5101690;28;20187;-75
2021/12/20 05:55:52;;;;;;;28.10;12.73;;;6.50;83.80;;;;;;5088527;28;20190;-75
2021/12/20 05:58:20;;;;;;;19.07;12.07;;;6.50;83.80;;;;;;5103616;28;20574;-75
2021/12/20 06:00:48;;;;;;;18.63;11.00;;;6.50;83.80;;;;;;5104968;28;20198;-76
2021/12/20 06:03:17;;;;;;;18.23;10.27;;;6.50;83.90;;;;;;5106661;28;20225;-76
2021/12/20 06:05:45;;;;;;;19.30;9.83;;;6.50;83.90;;;;;;5105192;28;20201;-76
2021/12/20 06:08:13;;;;;;;15.97;9.47;;;6.50;83.80;;;;;;5101428;28;20625;-75
2021/12/20 06:10:42;;;;;;;17.57;9.63;;;6.50;83.50;;;;;;5099865;28;20200;-75
2021/12/20 06:13:11;;;;;;;18.53;9.57;;;6.60;83.50;;;;;;5103444;28;20201;-75
2021/12/20 06:15:40;;;;;;;16.37;9.20;;;6.50;83.50;;;;;;5109416;28;20196;-75
2021/12/20 06:18:08;;;;;;;22.10;9.43;;;6.60;83.60;;;;;;5112153;27;20217;-75
2021/12/20 06:20:38;;;;;;;14.13;8.07;;;6.60;83.50;;;;;;5092741;28;20192;-75
2021/12/20 06:23:06;;;;;;;15.97;8.57;;;6.60;83.30;;;;;;5091258;28;20654;-75
2021/12/20 06:25:34;;;;;;;18.63;9.20;;;6.60;83.40;;;;;;5121940;27;20191;-75
2021/12/20 06:28:03;;;;;;;14.43;7.47;;;6.60;83.20;;;;;;5112664;27;20559;-75
2021/12/20 06:30:33;;;;;;;14.30;7.40;;;6.60;83.20;;;;;;5103345;27;20200;-75
2021/12/20 06:33:01;;;;;;;20.13;7.40;;;6.60;83.20;;;;;;5108958;28;20691;-76
2021/12/20 06:35:35;;;;;;;12.20;6.60;;;6.60;83.10;;;;;;5111194;27;20186;-75
2021/12/20 06:38:05;;;;;;;16.87;8.27;;;6.60;83.10;;;;;;5109344;28;20187;-76
2021/12/20 06:40:34;;;;;;;37.10;14.57;;;6.70;83.20;;;;;;5108064;28;20176;-75
2021/12/20 06:43:04;;;;;;;20.47;9.67;;;6.70;83.20;;;;;;5106641;28;20218;-76
2021/12/20 06:45:34;;;;;;;18.60;8.50;;;6.70;82.90;;;;;;5103958;27;20236;-75
2021/12/20 06:48:04;;;;;;;16.33;7.43;;;6.70;83.00;;;;;;5107558;28;20634;-77
2021/12/20 06:50:33;;;;;;;12.63;7.50;;;6.70;83.00;;;;;;5107843;27;20191;-75
2021/12/20 06:53:01;;;;;;;16.23;7.07;;;6.70;82.80;;;;;;5106569;27;20201;-76
2021/12/20 06:55:30;;;;;;;13.77;7.07;;;6.80;82.80;;;;;;5104215;28;20191;-75
2021/12/20 06:57:58;;;;;;;14.97;7.10;;;6.80;82.60;;;;;;5098920;28;20191;-75
2021/12/20 07:00:28;;;;;;;11.67;6.43;;;6.80;82.30;;;;;;5111419;27;20226;-76
2021/12/20 07:02:58;;;;;;;13.17;6.30;;;6.80;82.30;;;;;;5114057;27;20221;-77
2021/12/20 07:05:27;;;;;;;13.73;5.97;;;6.80;82.30;;;;;;5101482;27;20254;-75
2021/12/20 07:07:56;;;;;;;12.00;5.87;;;6.90;82.50;;;;;;5116591;27;20196;-75
2021/12/20 07:10:24;;;;;;;13.80;6.80;;;6.90;82.30;;;;;;5105319;27;20938;-75
2021/12/20 07:12:52;;;;;;;15.23;6.33;;;6.90;82.50;;;;;;5109738;27;20201;-76
2021/12/20 07:15:21;;;;;;;12.80;6.00;;;6.90;82.40;;;;;;5114163;27;20700;-75
2021/12/20 07:17:49;;;;;;;13.83;6.40;;;6.90;82.20;;;;;;5115133;27;20201;-76
2021/12/20 07:20:19;;;;;;;10.80;6.20;;;7.00;82.20;;;;;;5107186;28;20298;-75
2021/12/20 07:22:48;;;;;;;11.13;5.90;;;7.00;82.30;;;;;;5106522;28;20585;-76
2021/12/20 07:25:16;;;;;;;9.13;5.60;;;7.00;82.00;;;;;;5107186;28;20195;-76
2021/12/20 07:27:53;;;;;;;13.20;5.83;;;7.10;82.20;;;;;;5108131;28;20823;-76
2021/12/20 07:30:22;;;;;;;10.00;6.03;;;7.10;82.10;;;;;;5107236;28;20269;-75
2021/12/20 07:32:50;;;;;;;12.30;5.73;;;7.20;82.20;;;;;;5106533;28;20194;-75
2021/12/20 07:35:22;;;;;;;17.70;6.53;;;7.20;82.20;;;;;;5094655;28;20191;-76
2021/12/20 07:37:52;;;;;;;14.77;6.70;;;7.30;81.60;;;;;;5109358;27;20221;-76
2021/12/20 07:40:22;;;;;;;18.83;6.60;;;7.30;81.70;;;;;;5116094;27;20188;-75
2021/12/20 07:42:50;;;;;;;14.00;5.80;;;7.40;81.60;;;;;;5118029;27;20216;-74
2021/12/20 07:45:20;;;;;;;12.80;6.23;;;7.50;81.60;;;;;;5106270;27;20231;-76
2021/12/20 07:47:50;;;;;;;22.00;7.13;;;7.50;81.50;;;;;;5107628;27;20195;-75
2021/12/20 07:50:22;;;;;;;16.07;7.20;;;7.60;81.60;;;;;;5104927;28;20203;-75
2021/12/20 07:52:51;;;;;;;13.80;6.77;;;7.70;81.30;;;;;;5106952;28;20188;-75
2021/12/20 07:55:19;;;;;;;13.13;6.77;;;7.70;81.10;;;;;;5106899;28;20203;-75
2021/12/20 07:57:48;;;;;;;12.00;6.13;;;7.80;80.60;;;;;;5107292;28;20199;-75
2021/12/20 08:00:17;;;;;;;10.97;6.47;;;7.80;80.50;;;;;;5105682;28;20196;-76
2021/12/20 08:02:46;;;;;;;10.40;5.80;;;7.90;80.30;;;;;;5107379;28;20216;-74
2021/12/20 08:05:15;;;;;;;13.23;6.33;;;7.90;79.90;;;;;;5108231;28;20192;-75
2021/12/20 08:07:46;;;;;;;14.90;6.23;;;8.00;80.20;;;;;;5106906;28;20189;-76
2021/12/20 08:10:17;;;;;;;15.17;5.97;;;8.10;80.40;;;;;;5102486;27;20227;-75
2021/12/20 08:12:46;;;;;;;13.60;6.37;;;8.20;80.00;;;;;;5106280;28;20173;-75
2021/12/20 08:15:15;;;;;;;12.73;5.87;;;8.20;79.70;;;;;;5105794;28;20192;-75
2021/12/20 08:17:43;;;;;;;16.07;6.83;;;8.30;79.60;;;;;;5105201;28;20186;-76
2021/12/20 08:20:13;;;;;;;12.83;5.47;;;8.40;79.70;;;;;;5105454;28;20585;-76
2021/12/20 08:22:48;;;;;;;13.40;6.57;;;8.60;79.60;;;;;;5104303;27;20299;-75
2021/12/20 08:25:18;;;;;;;14.37;6.43;;;8.70;79.40;;;;;;5104696;28;20185;-75
2021/12/20 08:27:47;;;;;;;14.07;7.10;;;8.80;79.10;;;;;;5106177;28;20446;-75
2021/12/20 08:30:16;;;;;;;10.83;6.10;;;8.90;78.80;;;;;;5104651;28;20555;-76
2021/12/20 08:32:44;;;;;;;14.00;7.10;;;9.00;78.50;;;;;;5103037;28;20176;-76
2021/12/20 08:35:14;;;;;;;13.67;7.20;;;9.10;78.00;;;;;;5099060;28;20228;-75
2021/12/20 08:37:43;;;;;;;14.33;7.47;;;9.10;76.80;;;;;;5104762;28;20191;-75
2021/12/20 08:40:15;;;;;;;17.50;8.05;;;9.10;76.80;;;;;;5106218;28;20417;-77
2021/12/20 08:42:45;;;;;;;14.00;7.77;;;9.10;77.10;;;;;;5108577;28;20170;-77
2021/12/20 08:45:15;;;;;;;12.97;7.40;;;9.10;76.80;;;;;;5106143;28;20239;-78
2021/12/20 08:47:46;;;;;;;13.63;8.27;;;9.00;76.50;;;;;;5103569;28;20180;-76
2021/12/20 08:50:17;;;;;;;21.10;10.17;;;9.00;76.40;;;;;;5092440;28;20284;-75
2021/12/20 08:52:46;;;;;;;13.93;8.47;;;9.00;76.40;;;;;;5104613;28;20204;-75
2021/12/20 08:55:16;;;;;;;18.37;7.77;;;9.00;76.70;;;;;;5104284;28;20188;-76
2021/12/20 08:57:44;;;;;;;16.53;8.30;;;9.00;76.00;;;;;;5104837;28;20185;-76
2021/12/20 09:00:19;;;;;;;17.03;8.60;;;9.00;75.80;;;;;;5111976;27;20193;-76
2021/12/20 09:02:48;;;;;;;14.03;7.73;;;9.10;76.10;;;;;;5105340;28;20189;-76
2021/12/20 09:05:18;;;;;;;20.53;7.97;;;9.10;76.20;;;;;;5104693;28;20189;-75
2021/12/20 09:07:46;;;;;;;14.77;7.77;;;9.20;76.10;;;;;;5104457;28;20204;-75
2021/12/20 09:10:17;;;;;;;17.93;7.83;;;9.30;76.30;;;;;;5103532;28;20196;-75
2021/12/20 09:12:46;;;;;;;13.47;8.30;;;9.40;76.40;;;;;;5105377;27;20177;-75
2021/12/20 09:15:17;;;;;;;14.40;7.63;;;9.50;76.20;;;;;;5105908;28;20207;-75
2021/12/20 09:17:47;;;;;;;13.97;7.57;;;9.60;76.20;;;;;;5104244;28;20524;-76
2021/12/20 09:20:17;;;;;;;15.43;7.43;;;9.60;76.20;;;;;;5105686;28;20200;-75
2021/12/20 09:22:52;;;;;;;14.10;7.43;;;9.70;76.00;;;;;;5103553;28;20189;-75
2021/12/20 09:25:25;;;;;;;15.20;7.83;;;9.80;75.80;;;;;;5102846;28;20173;-75
2021/12/20 09:27:55;;;;;;;14.53;8.47;;;9.90;75.70;;;;;;5103194;28;20416;-75
2021/12/20 09:30:26;;;;;;;18.97;8.67;;;10.00;75.40;;;;;;5104195;28;20177;-73
2021/12/20 09:32:58;;;;;;;15.17;8.53;;;10.10;75.20;;;;;;5103165;28;20210;-73
2021/12/20 09:35:27;;;;;;;16.47;8.87;;;10.10;74.70;;;;;;5103564;28;20245;-74
2021/12/20 09:37:55;;;;;;;14.73;8.70;;;10.20;73.80;;;;;;5102250;28;20196;-73
2021/12/20 09:40:32;;;;;;;15.93;9.33;;;10.20;73.90;;;;;;5103785;28;20742;-74
2021/12/20 09:43:02;;;;;;;17.73;9.40;;;10.20;73.80;;;;;;5101870;27;20189;-73
2021/12/20 09:45:31;;;;;;;16.37;9.97;;;10.20;73.30;;;;;;5108647;27;20228;-73
2021/12/20 09:48:00;;;;;;;17.00;9.73;;;10.10;73.20;;;;;;5106054;27;20193;-73
2021/12/20 09:50:29;;;;;;;17.03;8.67;;;10.00;74.40;;;;;;5104191;28;20197;-74
2021/12/20 09:53:03;;;;;;;15.83;7.50;;;10.00;74.60;;;;;;5106146;27;20189;-75
2021/12/20 09:55:34;;;;;;;11.70;6.90;;;9.90;74.80;;;;;;5109656;27;20218;-74
2021/12/20 09:58:05;;;;;;;6.53;4.30;;;9.90;75.70;;;;;;5104605;28;20276;-74
2021/12/20 10:00:34;;;;;;;6.43;3.63;;;9.80;75.80;;;;;;5104323;28;20185;-74
2021/12/20 10:03:04;;;;;;;6.17;3.50;;;9.80;75.80;;;;;;5114743;27;20290;-74
2021/12/20 10:05:34;;;;;;;8.30;3.17;;;9.70;75.80;;;;;;5101837;28;20213;-74
2021/12/20 10:08:12;;;;;;;6.13;3.80;;;9.70;76.10;;;;;;5102383;28;20200;-74
2021/12/20 10:10:44;;;;;;;6.33;3.10;;;9.70;76.20;;;;;;5103254;28;20184;-74
2021/12/20 10:13:23;;;;;;;5.23;3.23;;;9.60;76.40;;;;;;5116812;28;20883;-74
2021/12/20 10:15:52;;;;;;;5.38;3.70;;;9.60;76.50;;;;;;5100992;28;20421;-74
2021/12/20 10:18:21;;;;;;;5.77;3.10;;;9.50;76.90;;;;;;5104406;28;20642;-74
2021/12/20 10:20:51;;;;;;;4.50;2.80;;;9.40;76.90;;;;;;5101415;28;20614;-74
2021/12/20 10:23:22;;;;;;;4.77;3.10;;;9.40;77.00;;;;;;5107092;28;20189;-75
2021/12/20 10:25:53;;;;;;;4.13;2.57;;;9.40;77.10;;;;;;5112547;28;20220;-75
2021/12/20 10:28:34;;;;;;;5.57;2.90;;;9.30;77.20;;;;;;5099557;28;20185;-75
2021/12/20 10:31:07;;;;;;;4.73;2.67;;;9.30;77.40;;;;;;5106982;28;20200;-76
2021/12/20 10:33:36;;;;;;;4.77;2.40;;;9.20;77.60;;;;;;5105763;28;20235;-74
2021/12/20 10:36:06;;;;;;;5.60;2.90;;;9.20;77.80;;;;;;5109185;28;20604;-75
2021/12/20 10:38:38;;;;;;;4.03;2.70;;;9.10;78.80;;;;;;5110496;28;20639;-75
2021/12/20 10:41:12;;;;;;;3.97;2.60;;;9.10;77.80;;;;;;5103962;28;20719;-75
2021/12/20 10:43:48;;;;;;;4.53;2.90;;;9.10;77.70;;;;;;5097489;28;20201;-75
2021/12/20 10:46:20;;;;;;;6.20;3.30;;;9.00;77.90;;;;;;5103888;28;20193;-74
2021/12/20 10:48:50;;;;;;;5.40;3.37;;;9.10;78.40;;;;;;5102608;28;20186;-74
2021/12/20 10:51:22;;;;;;;6.33;4.00;;;9.00;78.50;;;;;;5095482;28;20199;-75
2021/12/20 10:53:57;;;;;;;7.53;3.50;;;8.90;79.60;;;;;;5099483;27;20208;-75
2021/12/20 10:56:29;;;;;;;5.27;3.17;;;9.00;80.10;;;;;;5093533;28;20205;-77
2021/12/20 10:58:59;;;;;;;5.40;3.10;;;9.10;79.40;;;;;;5104707;28;20227;-76
2021/12/20 11:02:01;;;;;;;5.30;3.13;;;9.10;79.30;;;;;;5106112;27;20191;-76
2021/12/20 11:04:35;;;;;;;6.00;3.03;;;9.20;79.50;;;;;;5117557;27;20223;-75
2021/12/20 11:09:50;;;;;;;5.20;3.20;;;9.20;79.40;;;;;;5120200;27;20186;-74
2021/12/20 11:12:23;;;;;;;6.90;3.27;;;9.20;79.90;;;;;;5117091;27;20173;-75
2021/12/20 11:14:54;;;;;;;8.70;3.50;;;9.30;79.90;;;;;;5125378;27;20201;-74
2021/12/20 11:17:24;;;;;;;6.83;3.60;;;9.30;80.00;;;;;;5106474;28;20224;-75
2021/12/20 11:19:53;;;;;;;6.40;3.87;;;9.30;79.70;;;;;;5109970;27;20867;-75
2021/12/20 11:22:24;;;;;;;6.27;3.80;;;9.40;79.90;;;;;;5108037;27;20197;-75
2021/12/20 11:24:55;;;;;;;8.30;4.90;;;9.50;80.00;;;;;;5110003;27;20208;-75
2021/12/20 11:27:30;;;;;;;8.33;4.30;;;9.50;80.10;;;;;;5116933;27;20193;-74
2021/12/20 11:30:08;;;;;;;5.93;3.20;;;9.50;79.80;;;;;;5122259;27;20831;-74
2021/12/20 11:32:37;;;;;;;4.80;3.27;;;9.50;79.40;;;;;;5106615;27;20182;-75
2021/12/20 11:35:06;;;;;;;4.07;2.37;;;9.40;79.20;;;;;;5105496;28;20200;-76
2021/12/20 11:37:35;;;;;;;7.43;3.00;;;9.40;79.10;;;;;;5115933;27;20199;-76
2021/12/20 11:40:06;;;;;;;5.70;2.83;;;9.30;79.10;;;;;;5115749;27;20211;-76
2021/12/20 11:42:36;;;;;;;5.67;3.17;;;9.30;79.00;;;;;;5107378;27;20195;-76
2021/12/20 11:45:07;;;;;;;4.83;2.40;;;9.20;79.10;;;;;;5105768;27;20228;-75
2021/12/20 11:47:42;;;;;;;5.40;2.97;;;9.10;79.30;;;;;;5107753;28;20173;-76
2021/12/20 11:50:13;;;;;;;3.07;1.80;;;9.00;79.10;;;;;;5120788;27;20196;-77
2021/12/20 11:52:42;;;;;;;5.50;2.90;;;9.00;79.10;;;;;;5105327;27;20192;-76
2021/12/20 11:55:21;;;;;;;4.13;2.60;;;9.00;79.00;;;;;;5106656;28;20674;-76
2021/12/20 11:57:52;;;;;;;4.47;2.27;;;8.90;78.90;;;;;;5120042;27;20185;-75
2021/12/20 12:00:27;;;;;;;3.77;2.30;;;8.90;78.90;;;;;;5120563;27;20183;-75
2021/12/20 12:03:00;;;;;;;4.97;2.50;;;8.80;78.70;;;;;;5103871;28;20750;-76
2021/12/20 12:05:41;;;;;;;3.70;2.07;;;8.90;78.90;;;;;;5105665;27;20207;-75
2021/12/20 12:08:27;;;;;;;3.93;2.20;;;8.80;78.70;;;;;;5104969;27;20885;-76
2021/12/20 12:10:58;;;;;;;4.70;1.83;;;8.70;78.40;;;;;;5105725;28;20858;-77
2021/12/20 12:13:34;;;;;;;4.27;2.30;;;8.70;78.50;;;;;;5104274;27;20177;-76
2021/12/20 12:16:04;;;;;;;5.03;2.60;;;8.70;78.60;;;;;;5108452;27;20180;-76
2021/12/20 12:18:51;;;;;;;7.87;2.83;;;8.70;78.80;;;;;;5128478;27;20192;-76
2021/12/20 12:21:43;;;;;;;5.93;2.97;;;8.70;78.80;;;;;;5097489;28;20677;-76
2021/12/20 12:24:37;;;;;;;4.93;2.90;;;8.70;78.70;;;;;;5103545;27;20192;-75
2021/12/20 12:27:20;;;;;;;6.10;2.97;;;8.70;78.30;;;;;;5113865;27;20189;-76
2021/12/20 12:30:23;;;;;;;4.80;2.50;;;8.70;78.20;;;;;;5126033;27;20585;-75
2021/12/20 12:33:24;;;;;;;6.07;3.17;;;8.70;78.20;;;;;;5109320;27;20199;-75
2021/12/20 12:35:55;;;;;;;7.43;2.73;;;8.70;78.20;;;;;;5105639;27;20203;-75
2021/12/20 12:38:26;;;;;;;5.47;3.00;;;8.80;78.40;;;;;;5104961;28;20188;-75
2021/12/20 12:41:19;;;;;;;6.77;3.30;;;8.80;78.50;;;;;;5108559;27;20192;-76
2021/12/20 12:44:00;;;;;;;10.93;4.80;;;8.70;78.60;;;;;;5113754;27;20187;-75
2021/12/20 12:46:55;;;;;;;10.30;4.93;;;8.70;78.50;;;;;;5104933;28;20791;-75
2021/12/20 12:49:46;;;;;;;8.27;4.93;;;8.70;78.50;;;;;;5104768;27;20506;-75
2021/12/20 12:52:33;;;;;;;6.40;3.63;;;8.70;78.60;;;;;;5107145;27;20185;-75
2021/12/20 12:55:14;;;;;;;8.93;4.43;;;8.70;78.70;;;;;;5111093;27;20234;-75
2021/12/20 12:57:43;;;;;;;10.43;5.60;;;8.70;78.80;;;;;;5098514;28;20221;-77
2021/12/20 13:00:31;;;;;;;10.40;4.73;;;8.70;78.80;;;;;;5103667;28;20893;-75
2021/12/20 13:03:11;;;;;;;6.37;3.10;;;8.70;79.00;;;;;;5103101;27;20598;-76
2021/12/20 13:05:41;;;;;;;7.67;3.70;;;8.60;78.80;;;;;;5105743;27;21095;-78
2021/12/20 13:08:10;;;;;;;4.47;3.30;;;8.60;78.90;;;;;;5104904;27;20189;-77
2021/12/20 13:10:42;;;;;;;5.90;3.63;;;8.60;78.90;;;;;;5099886;28;20263;-77
2021/12/20 13:13:17;;;;;;;5.60;3.20;;;8.50;78.70;;;;;;5101815;28;20203;-78
2021/12/20 13:15:53;;;;;;;5.03;3.40;;;8.50;78.60;;;;;;5101700;28;20230;-77
2021/12/20 13:18:28;;;;;;;8.87;3.40;;;8.40;78.60;;;;;;5102290;28;20198;-75
2021/12/20 13:21:02;;;;;;;5.87;3.23;;;8.40;78.60;;;;;;5084184;28;20184;-77